createdAt,value
2023-10-09T00:00:52.250Z,6.18
2023-10-09T00:03:24.631Z,5.93
2023-10-09T00:05:57.195Z,5.80
2023-10-09T00:08:31.773Z,5.97
2023-10-09T00:11:14.972Z,6.40
2023-10-09T00:13:50.558Z,5.70
2023-10-09T00:16:34.658Z,5.78
2023-10-09T00:19:15.889Z,5.90
2023-10-09T00:21:46.532Z,5.63
2023-10-09T00:24:25.192Z,5.47
2023-10-09T00:26:57.296Z,5.78
2023-10-09T00:29:29.723Z,6.18
2023-10-09T00:32:17.039Z,6.20
2023-10-09T00:34:51.825Z,6.00
2023-10-09T00:37:24.695Z,6.13
2023-10-09T00:39:59.720Z,6.07
2023-10-09T00:45:06.421Z,5.60
2023-10-09T00:47:42.489Z,5.80
2023-10-09T00:50:22.598Z,5.72
2023-10-09T00:53:02.730Z,5.90
2023-10-09T00:55:46.457Z,5.72
2023-10-09T00:58:25.212Z,6.38
2023-10-09T01:00:57.370Z,6.25
2023-10-09T01:03:34.860Z,5.90
2023-10-09T01:06:22.447Z,5.63
2023-10-09T01:09:10.622Z,5.93
2023-10-09T01:11:49.317Z,6.63
2023-10-09T01:14:22.693Z,6.15
2023-10-09T01:16:55.993Z,6.10
2023-10-09T01:19:29.251Z,6.25
2023-10-09T01:22:05.779Z,6.03
2023-10-09T01:24:40.225Z,6.00
2023-10-09T01:27:16.902Z,6.60
2023-10-09T01:29:48.178Z,5.70
2023-10-09T01:32:21.167Z,6.18
2023-10-09T01:34:52.744Z,6.43
2023-10-09T01:37:29.362Z,6.10
2023-10-09T01:40:24.765Z,6.60
2023-10-09T01:42:55.660Z,6.40
2023-10-09T01:45:31.448Z,6.60
2023-10-09T01:48:06.850Z,6.72
2023-10-09T01:50:38.354Z,6.63
2023-10-09T01:53:09.552Z,6.50
2023-10-09T01:55:47.004Z,6.20
2023-10-09T01:58:25.925Z,5.78
2023-10-09T02:00:58.260Z,7.13
2023-10-09T02:03:30.866Z,6.50
2023-10-09T02:06:02.004Z,6.47
2023-10-09T02:08:36.746Z,6.85
2023-10-09T02:11:15.813Z,6.20
2023-10-09T02:13:48.701Z,6.63
2023-10-09T02:16:29.733Z,6.18
2023-10-09T02:19:00.556Z,5.65
2023-10-09T02:21:35.443Z,5.85
2023-10-09T02:26:58.797Z,5.67
2023-10-09T02:29:29.212Z,5.75
2023-10-09T02:32:10.765Z,5.55
2023-10-09T02:34:41.035Z,4.70
2023-10-09T02:37:14.512Z,4.72
2023-10-09T02:39:49.603Z,5.05
2023-10-09T02:45:01.327Z,5.10
2023-10-09T02:47:39.625Z,5.28
2023-10-09T02:50:20.829Z,5.10
2023-10-09T02:52:54.785Z,5.28
2023-10-09T02:55:29.286Z,4.72
2023-10-09T02:58:12.013Z,5.88
2023-10-09T03:00:45.888Z,4.90
2023-10-09T03:03:18.474Z,5.03
2023-10-09T03:05:51.303Z,5.60
2023-10-09T03:08:21.879Z,5.45
2023-10-09T03:10:52.183Z,5.18
2023-10-09T03:13:25.113Z,4.90
2023-10-09T03:15:55.397Z,4.97
2023-10-09T03:18:25.805Z,5.68
2023-10-09T03:20:57.562Z,5.28
2023-10-09T03:23:27.887Z,5.55
2023-10-09T03:26:10.796Z,5.20
2023-10-09T03:28:53.824Z,5.38
2023-10-09T03:31:24.322Z,5.13
2023-10-09T03:33:54.741Z,5.35
2023-10-09T03:36:28.093Z,5.68
2023-10-09T03:38:59.511Z,5.72
2023-10-09T03:41:30.545Z,5.38
2023-10-09T03:44:03.568Z,4.97
2023-10-09T03:46:38.234Z,5.30
2023-10-09T03:49:12.410Z,5.72
2023-10-09T03:51:43.915Z,5.63
2023-10-09T03:54:15.425Z,5.57
2023-10-09T03:56:46.094Z,5.90
2023-10-09T03:59:18.951Z,4.93
2023-10-09T04:01:50.138Z,6.03
2023-10-09T04:04:24.253Z,5.45
2023-10-09T04:06:55.737Z,4.83
2023-10-09T04:09:41.180Z,5.60
2023-10-09T04:14:59.359Z,5.53
2023-10-09T04:17:44.624Z,6.30
2023-10-09T04:20:27.838Z,6.07
2023-10-09T04:23:06.930Z,5.82
2023-10-09T04:25:52.280Z,6.57
2023-10-09T04:28:25.273Z,6.38
2023-10-09T04:31:00.353Z,5.80
2023-10-09T04:36:23.530Z,6.25
2023-10-09T04:39:17.459Z,5.85
2023-10-09T04:42:16.794Z,5.82
2023-10-09T04:45:01.428Z,6.43
2023-10-09T04:47:50.946Z,6.37
2023-10-09T04:50:33.753Z,6.63
2023-10-09T04:53:23.712Z,6.18
2023-10-09T04:56:06.117Z,6.30
2023-10-09T04:58:40.742Z,5.60
2023-10-09T05:01:17.672Z,6.43
2023-10-09T05:03:58.366Z,7.05
2023-10-09T05:06:56.109Z,7.18
2023-10-09T05:09:29.205Z,6.22
2023-10-09T05:12:17.592Z,7.10
2023-10-09T05:15:08.672Z,6.75
2023-10-09T05:17:37.439Z,7.28
2023-10-09T05:20:24.437Z,6.90
2023-10-09T05:23:21.170Z,6.68
2023-10-09T05:26:20.271Z,6.72
2023-10-09T05:28:53.994Z,6.80
2023-10-09T05:31:57.677Z,7.00
2023-10-09T05:34:35.440Z,6.60
2023-10-09T05:37:19.133Z,7.03
2023-10-09T05:40:09.986Z,7.40
2023-10-09T05:42:44.701Z,7.50
2023-10-09T05:48:06.900Z,6.53
2023-10-09T05:50:39.755Z,6.85
2023-10-09T05:53:33.421Z,6.78
2023-10-09T05:56:16.091Z,7.38
2023-10-09T05:59:07.191Z,7.30
2023-10-09T06:01:49.753Z,7.18
2023-10-09T06:04:21.384Z,7.72
2023-10-09T06:06:58.307Z,6.57
2023-10-09T06:09:51.546Z,7.45
2023-10-09T06:12:35.677Z,7.22
2023-10-09T06:15:20.255Z,8.90
2023-10-09T06:18:01.135Z,7.60
2023-10-09T06:21:01.089Z,8.20
2023-10-09T06:23:58.565Z,7.70
2023-10-09T06:26:34.465Z,7.80
2023-10-09T06:29:17.200Z,7.22
2023-10-09T06:32:18.128Z,7.40
2023-10-09T06:34:47.527Z,7.88
2023-10-09T06:37:35.681Z,7.78
2023-10-09T06:40:27.478Z,7.50
2023-10-09T06:43:08.530Z,6.80
2023-10-09T06:45:56.026Z,8.05
2023-10-09T06:48:39.274Z,7.72
2023-10-09T06:51:14.416Z,8.23
2023-10-09T06:56:48.831Z,6.93
2023-10-09T06:59:23.145Z,8.10
2023-10-09T07:02:06.578Z,7.68
2023-10-09T07:04:56.208Z,8.30
2023-10-09T07:07:26.210Z,8.50
2023-10-09T07:10:09.523Z,7.32
2023-10-09T07:12:44.208Z,8.52
2023-10-09T07:15:29.655Z,8.45
2023-10-09T07:18:19.996Z,8.75
2023-10-09T07:21:00.631Z,7.03
2023-10-09T07:23:36.875Z,8.93
2023-10-09T07:26:24.934Z,8.52
2023-10-09T07:29:02.269Z,7.85
2023-10-09T07:31:41.638Z,8.93
2023-10-09T07:34:24.315Z,9.00
2023-10-09T07:36:58.100Z,8.50
2023-10-09T07:39:36.035Z,7.70
2023-10-09T07:42:35.086Z,8.50
2023-10-09T07:45:14.103Z,8.73
2023-10-09T07:48:02.408Z,9.15
2023-10-09T07:50:42.760Z,8.63
2023-10-09T07:53:19.524Z,10.02
2023-10-09T07:55:55.617Z,9.48
2023-10-09T07:58:28.992Z,8.43
2023-10-09T08:01:17.516Z,8.55
2023-10-09T08:03:58.852Z,8.23
2023-10-09T08:07:01.587Z,8.95
2023-10-09T08:09:50.460Z,9.43
2023-10-09T08:12:33.450Z,8.98
2023-10-09T08:15:22.236Z,8.98
2023-10-09T08:17:55.321Z,8.32
2023-10-09T08:20:37.915Z,10.32
2023-10-09T08:23:23.589Z,9.55
2023-10-09T08:25:58.576Z,9.98
2023-10-09T08:28:41.171Z,10.07
2023-10-09T08:31:36.188Z,10.82
2023-10-09T08:36:44.130Z,11.30
2023-10-09T08:39:26.696Z,11.13
2023-10-09T08:41:59.507Z,9.98
2023-10-09T08:44:30.926Z,10.68
2023-10-09T08:47:01.976Z,9.85
2023-10-09T08:49:36.908Z,10.02
2023-10-09T08:52:12.342Z,10.48
2023-10-09T08:54:42.963Z,10.60
2023-10-09T08:57:13.301Z,9.02
2023-10-09T08:59:48.056Z,9.93
2023-10-09T09:02:18.864Z,10.93
2023-10-09T09:04:52.066Z,10.20
2023-10-09T09:07:40.633Z,10.25
2023-10-09T09:10:22.896Z,9.85
2023-10-09T09:12:54.926Z,10.30
2023-10-09T09:15:28.326Z,11.50
2023-10-09T09:18:12.971Z,10.27
2023-10-09T09:20:47.236Z,10.15
2023-10-09T09:23:25.263Z,10.57
2023-10-09T09:26:00.827Z,11.85
2023-10-09T09:28:40.461Z,11.80
2023-10-09T09:31:15.699Z,10.45
2023-10-09T09:36:16.148Z,10.68
2023-10-09T09:38:52.054Z,10.10
2023-10-09T09:41:27.973Z,10.90
2023-10-09T09:44:01.889Z,10.70
2023-10-09T09:46:38.549Z,10.20
2023-10-09T09:49:18.031Z,10.90
2023-10-09T09:51:48.646Z,10.43
2023-10-09T09:54:26.387Z,10.77
2023-10-09T09:56:58.899Z,10.40
2023-10-09T09:59:31.522Z,9.82
2023-10-09T10:02:08.433Z,10.82
2023-10-09T10:04:44.070Z,10.63
2023-10-09T10:07:17.713Z,11.43
2023-10-09T10:09:55.890Z,10.73
2023-10-09T10:13:01.839Z,10.52
2023-10-09T10:16:13.532Z,10.00
2023-10-09T10:19:08.468Z,10.43
2023-10-09T10:21:43.326Z,10.10
2023-10-09T10:25:00.041Z,9.80
2023-10-09T10:30:38.245Z,9.60
2023-10-09T10:33:17.655Z,10.55
2023-10-09T10:35:54.256Z,10.07
2023-10-09T10:38:50.980Z,10.07
2023-10-09T10:41:23.916Z,9.98
2023-10-09T10:44:02.530Z,9.55
2023-10-09T10:46:39.408Z,9.02
2023-10-09T10:49:22.037Z,8.98
2023-10-09T10:52:03.181Z,9.60
2023-10-09T10:54:57.767Z,7.90
2023-10-09T10:57:54.084Z,8.85
2023-10-09T11:00:39.410Z,7.97
2023-10-09T11:03:21.443Z,8.07
2023-10-09T11:05:56.858Z,8.10
2023-10-09T11:08:34.101Z,8.30
2023-10-09T11:11:21.016Z,8.18
2023-10-09T11:14:07.293Z,8.68
2023-10-09T11:16:48.970Z,8.13
2023-10-09T11:19:33.217Z,7.78
2023-10-09T11:22:17.616Z,7.05
2023-10-09T11:24:48.452Z,8.25
2023-10-09T11:27:21.909Z,8.18
2023-10-09T11:30:07.024Z,8.70
2023-10-09T11:32:39.923Z,8.98
2023-10-09T11:35:23.224Z,7.18
2023-10-09T11:38:00.664Z,7.60
2023-10-09T11:40:49.101Z,7.45
2023-10-09T11:43:25.449Z,7.45
2023-10-09T11:45:58.807Z,8.02
2023-10-09T11:48:34.883Z,6.75
2023-10-09T11:51:17.400Z,7.50
2023-10-09T11:53:51.376Z,7.93
2023-10-09T11:56:21.970Z,10.00
2023-10-09T11:58:53.143Z,7.75
2023-10-09T12:01:24.624Z,7.55
2023-10-09T12:03:58.752Z,7.55
2023-10-09T12:06:33.848Z,7.28
2023-10-09T12:09:07.001Z,7.70
2023-10-09T12:11:40.893Z,7.32
2023-10-09T12:14:15.655Z,6.97
2023-10-09T12:16:51.460Z,8.63
2023-10-09T12:19:24.981Z,9.65
2023-10-09T12:21:57.237Z,8.30
2023-10-09T12:24:30.402Z,8.25
2023-10-09T12:27:01.567Z,8.23
2023-10-09T12:29:32.692Z,7.15
2023-10-09T12:32:04.965Z,6.90
2023-10-09T12:34:39.640Z,6.72
2023-10-09T12:37:10.248Z,6.28
2023-10-09T12:39:41.662Z,6.60
2023-10-09T12:42:13.427Z,6.43
2023-10-09T12:44:44.146Z,6.30
2023-10-09T12:47:16.179Z,6.55
2023-10-09T12:49:55.426Z,6.90
2023-10-09T12:52:31.369Z,7.85
2023-10-09T12:55:01.921Z,6.82
2023-10-09T12:57:32.467Z,7.05
2023-10-09T13:00:11.889Z,6.82
2023-10-09T13:02:46.005Z,6.70
2023-10-09T13:05:27.614Z,6.45
2023-10-09T13:07:59.199Z,5.95
2023-10-09T13:10:32.927Z,6.43
2023-10-09T13:13:07.825Z,5.75
2023-10-09T13:15:44.083Z,5.80
2023-10-09T13:18:16.263Z,6.13
2023-10-09T13:20:49.292Z,6.38
2023-10-09T13:23:19.845Z,6.30
2023-10-09T13:25:50.515Z,6.55
2023-10-09T13:28:22.219Z,6.13
2023-10-09T13:30:53.222Z,6.05
2023-10-09T13:33:23.661Z,6.10
2023-10-09T13:35:57.275Z,6.55
2023-10-09T13:38:27.282Z,6.55
2023-10-09T13:41:05.824Z,6.47
2023-10-09T13:43:36.353Z,6.20
2023-10-09T13:46:07.360Z,6.45
2023-10-09T13:48:39.652Z,6.13
2023-10-09T13:51:15.581Z,6.10
2023-10-09T13:53:49.352Z,5.70
2023-10-09T13:56:22.678Z,5.72
2023-10-09T13:58:57.018Z,5.80
2023-10-09T14:01:34.362Z,5.97
2023-10-09T14:04:07.663Z,5.97
2023-10-09T14:06:46.044Z,5.72
2023-10-09T14:09:29.831Z,6.50
2023-10-09T14:12:08.669Z,6.40
2023-10-09T14:14:48.544Z,5.40
2023-10-09T14:17:25.309Z,5.00
2023-10-09T14:20:02.464Z,5.57
2023-10-09T14:22:39.723Z,5.20
2023-10-09T14:25:16.861Z,5.50
2023-10-09T14:27:49.558Z,5.32
2023-10-09T14:30:32.086Z,5.30
2023-10-09T14:33:04.725Z,5.50
2023-10-09T14:35:37.426Z,5.28
2023-10-09T14:38:13.932Z,5.47
2023-10-09T14:40:49.395Z,4.43
2023-10-09T14:43:29.512Z,5.13
2023-10-09T14:46:00.085Z,4.88
2023-10-09T14:48:30.614Z,4.85
2023-10-09T14:51:06.346Z,4.40
2023-10-09T14:53:39.442Z,5.05
2023-10-09T14:56:10.891Z,4.65
2023-10-09T14:58:42.186Z,5.25
2023-10-09T15:01:20.997Z,5.68
2023-10-09T15:03:54.530Z,5.72
2023-10-09T15:06:25.208Z,6.20
2023-10-09T15:08:58.389Z,5.97
2023-10-09T15:11:30.125Z,6.07
2023-10-09T15:14:01.484Z,5.05
2023-10-09T15:16:32.306Z,4.47
2023-10-09T15:19:04.276Z,4.40
2023-10-09T15:21:35.933Z,5.20
2023-10-09T15:24:10.430Z,4.85
2023-10-09T15:26:41.396Z,4.25
2023-10-09T15:29:11.881Z,4.03
2023-10-09T15:31:43.305Z,4.85
2023-10-09T15:34:14.381Z,4.32
2023-10-09T15:36:45.405Z,4.45
2023-10-09T15:39:20.841Z,4.15
2023-10-09T15:41:52.025Z,4.20
2023-10-09T15:44:28.217Z,4.28
2023-10-09T15:47:01.600Z,4.43
2023-10-09T15:49:35.279Z,4.65
2023-10-09T15:52:09.339Z,4.63
2023-10-09T15:54:44.483Z,4.15
2023-10-09T15:57:15.129Z,4.43
2023-10-09T15:59:46.487Z,4.55
2023-10-09T16:02:18.628Z,4.65
2023-10-09T16:04:49.257Z,4.88
2023-10-09T16:07:19.780Z,5.28
2023-10-09T16:09:52.883Z,5.13
2023-10-09T16:12:24.706Z,5.60
2023-10-09T16:14:55.932Z,5.00
2023-10-09T16:17:27.417Z,4.93
2023-10-09T16:19:58.193Z,4.43
2023-10-09T16:22:29.596Z,4.95
2023-10-09T16:25:10.790Z,4.22
2023-10-09T16:27:41.484Z,5.35
2023-10-09T16:30:16.164Z,5.25
2023-10-09T16:32:46.691Z,5.00
2023-10-09T16:35:17.938Z,4.88
2023-10-09T16:37:50.999Z,4.90
2023-10-09T16:40:24.388Z,4.85
2023-10-09T16:42:55.050Z,6.05
2023-10-09T16:45:27.773Z,5.72
2023-10-09T16:48:00.505Z,5.25
2023-10-09T16:50:31.136Z,6.15
2023-10-09T16:53:02.115Z,6.20
2023-10-09T16:55:35.366Z,6.35
2023-10-09T16:58:05.824Z,5.60
2023-10-09T17:00:36.626Z,5.57
2023-10-09T17:03:09.671Z,6.43
2023-10-09T17:05:56.730Z,5.95
2023-10-09T17:08:31.247Z,6.55
2023-10-09T17:11:07.859Z,5.90
2023-10-09T17:13:38.798Z,5.95
2023-10-09T17:16:18.726Z,6.20
2023-10-09T17:18:50.928Z,5.78
2023-10-09T17:21:24.561Z,6.05
2023-10-09T17:23:59.763Z,6.05
2023-10-09T17:29:04.189Z,6.97
2023-10-09T17:31:36.836Z,6.22
2023-10-09T17:34:08.927Z,6.72
2023-10-09T17:36:39.901Z,6.30
2023-10-09T17:39:14.219Z,6.25
2023-10-09T17:41:47.259Z,6.10
2023-10-09T17:44:20.270Z,6.70
2023-10-09T17:46:51.272Z,7.07
2023-10-09T17:49:25.739Z,5.65
2023-10-09T17:51:56.502Z,5.65
2023-10-09T17:54:29.470Z,6.00
2023-10-09T17:57:03.740Z,6.40
2023-10-09T17:59:34.691Z,7.13
2023-10-09T18:02:05.800Z,6.38
2023-10-09T18:04:36.751Z,6.57
2023-10-09T18:07:07.881Z,6.25
2023-10-09T18:09:41.174Z,6.57
2023-10-09T18:12:16.053Z,6.43
2023-10-09T18:14:48.215Z,7.18
2023-10-09T18:17:21.203Z,6.70
2023-10-09T18:19:53.139Z,9.48
2023-10-09T18:22:25.579Z,11.43
2023-10-09T18:24:56.845Z,12.50
2023-10-09T18:27:30.345Z,10.73
2023-10-09T18:30:00.806Z,10.63
2023-10-09T18:32:32.335Z,10.05
2023-10-09T18:35:02.883Z,10.75
2023-10-09T18:37:33.336Z,9.95
2023-10-09T18:40:07.469Z,9.02
2023-10-09T18:42:41.730Z,8.50
2023-10-09T18:45:16.780Z,8.20
2023-10-09T18:47:47.373Z,8.20
2023-10-09T18:50:18.382Z,7.60
2023-10-09T18:52:50.505Z,7.50
2023-10-09T18:55:22.049Z,7.95
2023-10-09T18:57:55.120Z,7.88
2023-10-09T19:00:31.901Z,8.13
2023-10-09T19:03:02.760Z,8.07
2023-10-09T19:05:33.305Z,8.32
2023-10-09T19:08:04.436Z,7.95
2023-10-09T19:10:35.017Z,8.35
2023-10-09T19:13:11.503Z,7.13
2023-10-09T19:15:42.639Z,10.00
2023-10-09T19:18:13.802Z,7.90
2023-10-09T19:20:45.170Z,8.30
2023-10-09T19:23:15.705Z,8.70
2023-10-09T19:25:47.778Z,8.23
2023-10-09T19:28:20.982Z,8.40
2023-10-09T19:30:53.165Z,9.23
2023-10-09T19:33:23.675Z,8.75
2023-10-09T19:35:54.153Z,9.43
2023-10-09T19:38:24.845Z,9.15
2023-10-09T19:40:57.352Z,9.23
2023-10-09T19:43:30.372Z,9.82
2023-10-09T19:46:06.168Z,9.10
2023-10-09T19:48:37.091Z,9.38
2023-10-09T19:51:08.936Z,8.73
2023-10-09T19:53:40.161Z,9.70
2023-10-09T19:56:12.224Z,9.90
2023-10-09T19:58:47.541Z,11.07
2023-10-09T20:01:20.012Z,10.63
2023-10-09T20:03:50.663Z,10.18
2023-10-09T20:06:21.139Z,9.30
2023-10-09T20:08:51.828Z,10.93
2023-10-09T20:11:24.404Z,11.02
2023-10-09T20:13:57.539Z,10.63
2023-10-09T20:16:28.404Z,11.20
2023-10-09T20:18:58.934Z,10.70
2023-10-09T20:21:29.473Z,10.68
2023-10-09T20:24:02.597Z,11.80
2023-10-09T20:26:36.016Z,11.85
2023-10-09T20:29:09.214Z,13.30
2023-10-09T20:31:40.916Z,17.42
2023-10-09T20:34:13.266Z,19.02
2023-10-09T20:36:45.004Z,22.60
2023-10-09T20:39:17.893Z,22.00
2023-10-09T20:41:48.554Z,26.45
2023-10-09T20:44:21.810Z,24.75
2023-10-09T20:46:55.316Z,25.88
2023-10-09T20:49:25.801Z,25.83
2023-10-09T20:51:57.950Z,24.08
2023-10-09T20:54:29.351Z,24.80
2023-10-09T20:56:59.845Z,25.50
2023-10-09T20:59:34.357Z,24.98
2023-10-09T21:02:07.761Z,24.40
2023-10-09T21:04:38.333Z,25.25
2023-10-09T21:07:08.840Z,23.00
2023-10-09T21:09:39.283Z,23.20
2023-10-09T21:12:12.973Z,21.08
2023-10-09T21:14:47.159Z,21.67
2023-10-09T21:17:18.788Z,20.65
2023-10-09T21:19:52.213Z,26.45
2023-10-09T21:22:22.804Z,34.55
2023-10-09T21:24:54.715Z,33.58
2023-10-09T21:27:25.537Z,43.10
2023-10-09T21:29:58.574Z,48.47
2023-10-09T21:32:29.213Z,48.10
2023-10-09T21:35:00.285Z,44.78
2023-10-09T21:37:30.780Z,48.35
2023-10-09T21:40:04.189Z,50.00
2023-10-09T21:42:34.658Z,46.05
2023-10-09T21:45:09.261Z,44.35
2023-10-09T21:47:39.844Z,44.78
2023-10-09T21:50:11.526Z,45.60
2023-10-09T21:52:42.452Z,41.95
2023-10-09T21:55:13.677Z,41.55
2023-10-09T21:57:45.046Z,43.67
2023-10-09T22:00:19.986Z,35.15
2023-10-09T22:02:51.282Z,34.22
2023-10-09T22:05:22.182Z,32.30
2023-10-09T22:07:53.218Z,33.25
2023-10-09T22:10:23.724Z,33.00
2023-10-09T22:12:55.024Z,34.22
2023-10-09T22:15:28.233Z,33.15
2023-10-09T22:17:58.686Z,28.95
2023-10-09T22:20:31.599Z,27.65
2023-10-09T22:23:01.988Z,24.38
2023-10-09T22:25:32.313Z,25.25
2023-10-09T22:28:05.049Z,24.95
2023-10-09T22:30:39.603Z,25.33
2023-10-09T22:33:13.790Z,22.40
2023-10-09T22:35:46.356Z,21.33
2023-10-09T22:38:17.928Z,19.17
2023-10-09T22:40:50.164Z,19.60
2023-10-09T22:43:21.929Z,19.40
2023-10-09T22:45:58.193Z,19.88
2023-10-09T22:48:30.527Z,19.38
2023-10-09T22:51:11.341Z,19.05
2023-10-09T22:53:47.976Z,20.77
2023-10-09T22:56:22.392Z,18.83
2023-10-09T22:58:56.745Z,20.08
2023-10-09T23:01:33.448Z,17.90
2023-10-09T23:04:19.533Z,19.63
2023-10-09T23:06:49.837Z,19.17
2023-10-09T23:09:32.423Z,22.40
2023-10-09T23:12:08.785Z,19.85
2023-10-09T23:14:39.242Z,20.08
2023-10-09T23:17:19.425Z,20.05
2023-10-09T23:19:56.330Z,19.45
2023-10-09T23:22:38.985Z,18.20
2023-10-09T23:25:19.273Z,20.55
2023-10-09T23:27:52.071Z,19.27
2023-10-09T23:30:29.969Z,20.38
2023-10-09T23:33:16.378Z,20.30
2023-10-09T23:35:52.394Z,21.35
2023-10-09T23:38:33.407Z,20.73
2023-10-09T23:41:10.818Z,19.77
2023-10-09T23:43:48.567Z,20.23
2023-10-09T23:46:25.187Z,19.27
2023-10-09T23:48:59.237Z,19.70
2023-10-09T23:51:30.314Z,18.27
2023-10-09T23:54:03.021Z,17.05
2023-10-09T23:56:51.418Z,17.67
2023-10-09T23:59:23.297Z,16.35
